createdAt,value
2022-10-16T00:00:21.960Z,964.40
2022-10-16T00:01:11.959Z,964.39
2022-10-16T00:02:02.015Z,964.40
2022-10-16T00:02:51.936Z,964.43
2022-10-16T00:03:41.926Z,964.38
2022-10-16T00:04:31.940Z,964.43
2022-10-16T00:05:21.906Z,964.39
2022-10-16T00:06:11.899Z,964.42
2022-10-16T00:07:01.883Z,964.40
2022-10-16T00:07:51.879Z,964.40
2022-10-16T00:08:41.877Z,964.45
2022-10-16T00:09:31.861Z,964.47
2022-10-16T00:10:21.871Z,964.46
2022-10-16T00:11:11.840Z,964.45
2022-10-16T00:12:01.834Z,964.45
2022-10-16T00:12:51.819Z,964.44
2022-10-16T00:13:41.832Z,964.45
2022-10-16T00:14:31.800Z,964.44
2022-10-16T00:15:21.789Z,964.43
2022-10-16T00:16:11.809Z,964.42
2022-10-16T00:17:01.799Z,964.47
2022-10-16T00:17:51.790Z,964.42
2022-10-16T00:18:41.749Z,964.42
2022-10-16T00:19:31.747Z,964.43
2022-10-16T00:20:21.736Z,964.41
2022-10-16T00:21:11.743Z,964.39
2022-10-16T00:22:01.769Z,964.30
2022-10-16T00:22:51.710Z,964.37
2022-10-16T00:23:41.702Z,964.36
2022-10-16T00:24:31.691Z,964.33
2022-10-16T00:25:21.676Z,964.35
2022-10-16T00:26:11.681Z,964.38
2022-10-16T00:27:01.689Z,964.41
2022-10-16T00:27:51.669Z,964.37
2022-10-16T00:28:41.691Z,964.37
2022-10-16T00:29:31.641Z,964.35
2022-10-16T00:30:21.622Z,964.37
2022-10-16T00:31:11.609Z,964.33
2022-10-16T00:32:01.600Z,964.35
2022-10-16T00:32:51.618Z,964.36
2022-10-16T00:33:41.578Z,964.37
2022-10-16T00:34:31.598Z,964.38
2022-10-16T00:35:21.569Z,964.37
2022-10-16T00:36:11.560Z,964.36
2022-10-16T00:37:01.550Z,964.39
2022-10-16T00:37:51.539Z,964.42
2022-10-16T00:38:41.533Z,964.40
2022-10-16T00:39:31.521Z,964.43
2022-10-16T00:40:21.539Z,964.40
2022-10-16T00:41:11.530Z,964.44
2022-10-16T00:42:01.489Z,964.43
2022-10-16T00:42:51.486Z,964.50
2022-10-16T00:43:41.478Z,964.49
2022-10-16T00:44:31.475Z,964.47
2022-10-16T00:45:21.448Z,964.47
2022-10-16T00:46:11.652Z,964.47
2022-10-16T00:47:01.455Z,964.49
2022-10-16T00:47:51.438Z,964.49
2022-10-16T00:48:41.416Z,964.45
2022-10-16T00:49:31.408Z,964.41
2022-10-16T00:50:21.397Z,964.40
2022-10-16T00:51:11.389Z,964.43
2022-10-16T00:52:01.417Z,964.46
2022-10-16T00:52:51.378Z,964.44
2022-10-16T00:53:41.358Z,964.41
2022-10-16T00:54:31.347Z,964.44
2022-10-16T00:55:21.337Z,964.46
2022-10-16T00:56:11.337Z,964.43
2022-10-16T00:57:01.470Z,964.43
2022-10-16T00:57:51.316Z,964.41
2022-10-16T00:58:41.306Z,964.43
2022-10-16T00:59:31.305Z,964.40
2022-10-16T01:00:21.290Z,964.44
2022-10-16T01:01:11.315Z,964.44
2022-10-16T01:02:01.266Z,964.47
2022-10-16T01:02:51.276Z,964.49
2022-10-16T01:03:41.252Z,964.46
2022-10-16T01:04:31.237Z,964.47
2022-10-16T01:05:21.237Z,964.46
2022-10-16T01:06:11.275Z,964.48
2022-10-16T01:07:01.244Z,964.50
2022-10-16T01:07:51.206Z,964.50
2022-10-16T01:08:41.188Z,964.53
2022-10-16T01:09:31.196Z,964.52
2022-10-16T01:10:21.177Z,964.51
2022-10-16T01:11:11.167Z,964.53
2022-10-16T01:12:01.153Z,964.51
2022-10-16T01:12:51.197Z,964.49
2022-10-16T01:13:41.134Z,964.52
2022-10-16T01:14:31.126Z,964.44
2022-10-16T01:15:21.116Z,964.46
2022-10-16T01:16:11.109Z,964.50
2022-10-16T01:17:01.095Z,964.49
2022-10-16T01:17:51.136Z,964.53
2022-10-16T01:18:41.085Z,964.53
2022-10-16T01:19:31.077Z,964.55
2022-10-16T01:20:21.059Z,964.51
2022-10-16T01:21:11.059Z,964.55
2022-10-16T01:22:01.045Z,964.56
2022-10-16T01:22:51.255Z,964.58
2022-10-16T01:23:41.019Z,964.54
2022-10-16T01:24:31.030Z,964.54
2022-10-16T01:25:21.013Z,964.59
2022-10-16T01:26:10.997Z,964.56
2022-10-16T01:27:00.985Z,964.64
2022-10-16T01:27:50.983Z,964.64
2022-10-16T01:28:41.072Z,964.66
2022-10-16T01:29:30.974Z,964.66
2022-10-16T01:30:20.946Z,964.64
2022-10-16T01:31:10.950Z,964.68
2022-10-16T01:32:00.927Z,964.62
2022-10-16T01:32:50.924Z,964.60
2022-10-16T01:33:40.985Z,964.61
2022-10-16T01:34:30.938Z,964.62
2022-10-16T01:35:20.894Z,964.65
2022-10-16T01:36:10.885Z,964.63
2022-10-16T01:37:00.874Z,964.65
2022-10-16T01:37:50.866Z,964.65
2022-10-16T01:38:40.864Z,964.63
2022-10-16T01:39:30.853Z,964.61
2022-10-16T01:40:20.875Z,964.66
2022-10-16T01:41:10.834Z,964.65
2022-10-16T01:42:00.827Z,964.63
2022-10-16T01:42:50.862Z,964.65
2022-10-16T01:43:40.833Z,964.62
2022-10-16T01:44:30.793Z,964.63
2022-10-16T01:45:20.786Z,964.63
2022-10-16T01:46:10.819Z,964.60
2022-10-16T01:47:00.764Z,964.63
2022-10-16T01:47:50.753Z,964.65
2022-10-16T01:48:40.743Z,964.64
2022-10-16T01:49:30.734Z,964.63
2022-10-16T01:50:20.723Z,964.61
2022-10-16T01:51:10.726Z,964.64
2022-10-16T01:52:50.703Z,964.62
2022-10-16T01:53:40.702Z,964.60
2022-10-16T01:54:30.683Z,964.55
2022-10-16T01:55:20.664Z,964.54
2022-10-16T01:56:10.690Z,964.63
2022-10-16T01:57:00.646Z,964.59
2022-10-16T01:57:50.644Z,964.63
2022-10-16T01:58:40.633Z,964.60
2022-10-16T01:59:30.636Z,964.62
2022-10-16T02:00:20.624Z,964.65
2022-10-16T02:01:10.767Z,964.64
2022-10-16T02:02:00.801Z,964.62
2022-10-16T02:02:50.608Z,964.61
2022-10-16T02:03:40.595Z,964.62
2022-10-16T02:04:30.572Z,964.59
2022-10-16T02:05:20.562Z,964.60
2022-10-16T02:06:10.552Z,964.57
2022-10-16T02:07:00.549Z,964.60
2022-10-16T02:07:50.537Z,964.58
2022-10-16T02:08:40.524Z,964.57
2022-10-16T02:09:30.733Z,964.63
2022-10-16T02:10:20.558Z,964.60
2022-10-16T02:11:10.529Z,964.62
2022-10-16T02:12:00.482Z,964.61
2022-10-16T02:12:50.473Z,964.62
2022-10-16T02:13:40.462Z,964.57
2022-10-16T02:14:30.465Z,964.56
2022-10-16T02:15:20.473Z,964.57
2022-10-16T02:16:10.434Z,964.60
2022-10-16T02:17:00.428Z,964.63
2022-10-16T02:17:50.423Z,964.64
2022-10-16T02:18:40.402Z,964.64
2022-10-16T02:19:30.422Z,964.61
2022-10-16T02:20:20.391Z,964.58
2022-10-16T02:21:10.612Z,964.61
2022-10-16T02:22:00.372Z,964.60
2022-10-16T02:22:50.360Z,964.58
2022-10-16T02:23:40.351Z,964.56
2022-10-16T02:24:30.367Z,964.56
2022-10-16T02:25:20.331Z,964.59
2022-10-16T02:26:10.488Z,964.58
2022-10-16T02:27:00.361Z,964.53
2022-10-16T02:27:50.309Z,964.56
2022-10-16T02:28:40.391Z,964.52
2022-10-16T02:29:30.292Z,964.56
2022-10-16T02:30:20.283Z,964.61
2022-10-16T02:31:10.279Z,964.57
2022-10-16T02:32:00.267Z,964.58
2022-10-16T02:32:50.294Z,964.55
2022-10-16T02:33:40.242Z,964.54
2022-10-16T02:34:30.244Z,964.55
2022-10-16T02:35:20.222Z,964.57
2022-10-16T02:36:10.210Z,964.53
2022-10-16T02:37:00.208Z,964.52
2022-10-16T02:37:50.198Z,964.57
2022-10-16T02:38:40.247Z,964.55
2022-10-16T02:39:30.180Z,964.59
2022-10-16T02:40:22.878Z,964.62
2022-10-16T02:41:11.161Z,964.65
2022-10-16T02:42:00.150Z,964.64
2022-10-16T02:42:50.150Z,964.63
2022-10-16T02:43:40.138Z,964.57
2022-10-16T02:44:30.330Z,964.57
2022-10-16T02:45:20.108Z,964.56
2022-10-16T02:46:10.101Z,964.56
2022-10-16T02:47:00.143Z,964.53
2022-10-16T02:47:50.082Z,964.54
2022-10-16T02:48:40.068Z,964.58
2022-10-16T02:49:30.069Z,964.56
2022-10-16T02:50:20.076Z,964.57
2022-10-16T02:51:10.052Z,964.57
2022-10-16T02:52:00.028Z,964.59
2022-10-16T02:52:50.026Z,964.54
2022-10-16T02:53:40.009Z,964.60
2022-10-16T02:54:30.037Z,964.64
2022-10-16T02:55:19.999Z,964.68
2022-10-16T02:56:10.125Z,964.66
2022-10-16T02:56:59.978Z,964.61
2022-10-16T02:57:49.986Z,964.67
2022-10-16T02:58:39.958Z,964.64
2022-10-16T02:59:29.951Z,964.61
2022-10-16T03:00:19.937Z,964.61
2022-10-16T03:01:09.980Z,964.63
2022-10-16T03:01:59.946Z,964.67
2022-10-16T03:02:49.953Z,964.66
2022-10-16T03:03:39.897Z,964.67
2022-10-16T03:04:29.899Z,964.65
2022-10-16T03:05:19.887Z,964.67
2022-10-16T03:06:09.877Z,964.66
2022-10-16T03:06:59.865Z,964.66
2022-10-16T03:07:49.888Z,964.64
2022-10-16T03:08:39.846Z,964.60
2022-10-16T03:09:29.847Z,964.62
2022-10-16T03:10:19.827Z,964.62
2022-10-16T03:11:09.840Z,964.68
2022-10-16T03:11:59.808Z,964.66
2022-10-16T03:12:49.798Z,964.68
2022-10-16T03:13:39.825Z,964.67
2022-10-16T03:14:29.789Z,964.64
2022-10-16T03:15:19.784Z,964.66
2022-10-16T03:16:09.758Z,964.66
2022-10-16T03:16:59.757Z,964.68
2022-10-16T03:17:49.745Z,964.67
2022-10-16T03:18:39.737Z,964.67
2022-10-16T03:19:29.784Z,964.71
2022-10-16T03:20:19.718Z,964.69
2022-10-16T03:21:09.709Z,964.70
2022-10-16T03:21:59.697Z,964.67
2022-10-16T03:22:49.688Z,964.70
2022-10-16T03:23:39.679Z,964.68
2022-10-16T03:24:29.678Z,964.68
2022-10-16T03:25:19.686Z,964.76
2022-10-16T03:26:09.647Z,964.73
2022-10-16T03:26:59.853Z,964.72
2022-10-16T03:27:49.643Z,964.77
2022-10-16T03:28:39.641Z,964.73
2022-10-16T03:29:29.613Z,964.77
2022-10-16T03:30:19.605Z,964.73
2022-10-16T03:31:09.608Z,964.73
2022-10-16T03:31:59.585Z,964.73
2022-10-16T03:32:49.595Z,964.73
2022-10-16T03:33:39.565Z,964.67
2022-10-16T03:34:29.568Z,964.68
2022-10-16T03:35:19.553Z,964.72
2022-10-16T03:36:09.544Z,964.71
2022-10-16T03:36:59.535Z,964.71
2022-10-16T03:37:49.521Z,964.70
2022-10-16T03:38:39.535Z,964.70
2022-10-16T03:39:29.504Z,964.69
2022-10-16T03:40:19.495Z,964.65
2022-10-16T03:41:09.482Z,964.65
2022-10-16T03:41:59.505Z,964.68
2022-10-16T03:42:49.463Z,964.69
2022-10-16T03:43:39.456Z,964.65
2022-10-16T03:44:29.444Z,964.64
2022-10-16T03:45:19.437Z,964.64
2022-10-16T03:46:09.423Z,964.65
2022-10-16T03:46:59.417Z,964.67
2022-10-16T03:47:49.643Z,964.66
2022-10-16T03:48:39.395Z,964.69
2022-10-16T03:49:29.383Z,964.65
2022-10-16T03:50:19.385Z,964.68
2022-10-16T03:51:09.384Z,964.70
2022-10-16T03:51:59.362Z,964.71
2022-10-16T03:52:49.346Z,964.72
2022-10-16T03:53:39.365Z,964.71
2022-10-16T03:54:29.333Z,964.70
2022-10-16T03:55:19.323Z,964.73
2022-10-16T03:56:09.313Z,964.70
2022-10-16T03:56:59.303Z,964.72
2022-10-16T03:57:49.300Z,964.75
2022-10-16T03:58:39.293Z,964.69
2022-10-16T03:59:29.513Z,964.71
2022-10-16T04:00:19.281Z,964.77
2022-10-16T04:01:09.285Z,964.77
2022-10-16T04:01:59.250Z,964.74
2022-10-16T04:02:49.234Z,964.71
2022-10-16T04:03:39.274Z,964.70
2022-10-16T04:04:29.221Z,964.75
2022-10-16T04:05:19.275Z,964.77
2022-10-16T04:06:09.202Z,964.73
2022-10-16T04:06:59.195Z,964.77
2022-10-16T04:07:49.184Z,964.74
2022-10-16T04:08:39.184Z,964.74
2022-10-16T04:09:29.163Z,964.74
2022-10-16T04:10:19.155Z,964.72
2022-10-16T04:11:10.312Z,964.80
2022-10-16T04:11:59.147Z,964.78
2022-10-16T04:12:49.124Z,964.76
2022-10-16T04:13:39.127Z,964.81
2022-10-16T04:14:29.101Z,964.75
2022-10-16T04:15:19.101Z,964.77
2022-10-16T04:16:09.094Z,964.78
2022-10-16T04:16:59.111Z,964.89
2022-10-16T04:17:49.072Z,964.88
2022-10-16T04:18:39.061Z,964.82
2022-10-16T04:19:29.048Z,964.84
2022-10-16T04:20:19.042Z,964.85
2022-10-16T04:21:09.045Z,964.84
2022-10-16T04:21:59.021Z,964.83
2022-10-16T04:22:49.043Z,964.83
2022-10-16T04:23:39.011Z,964.88
2022-10-16T04:24:28.993Z,964.88
2022-10-16T04:25:18.991Z,964.91
2022-10-16T04:26:08.981Z,964.84
2022-10-16T04:26:58.973Z,964.88
2022-10-16T04:27:48.963Z,964.89
2022-10-16T04:28:39.027Z,964.92
2022-10-16T04:29:28.939Z,964.92
2022-10-16T04:30:18.933Z,964.88
2022-10-16T04:31:08.920Z,964.89
2022-10-16T04:31:58.932Z,964.88
2022-10-16T04:32:48.933Z,964.89
2022-10-16T04:33:39.099Z,964.92
2022-10-16T04:34:29.240Z,964.91
2022-10-16T04:35:18.889Z,964.93
2022-10-16T04:36:08.860Z,964.92
2022-10-16T04:36:58.859Z,964.96
2022-10-16T04:37:48.842Z,964.93
2022-10-16T04:38:38.841Z,964.95
2022-10-16T04:39:28.831Z,964.98
2022-10-16T04:40:18.881Z,964.98
2022-10-16T04:41:08.811Z,964.93
2022-10-16T04:41:58.808Z,964.91
2022-10-16T04:42:48.790Z,964.94
2022-10-16T04:43:38.792Z,964.94
2022-10-16T04:44:28.770Z,964.96
2022-10-16T04:45:18.771Z,964.93
2022-10-16T04:46:10.369Z,964.91
2022-10-16T04:46:58.753Z,964.92
2022-10-16T04:47:48.740Z,964.93
2022-10-16T04:48:38.731Z,964.92
2022-10-16T04:49:28.718Z,964.96
2022-10-16T04:50:18.709Z,964.99
2022-10-16T04:51:08.699Z,964.98
2022-10-16T04:51:58.760Z,965.01
2022-10-16T04:52:48.680Z,964.92
2022-10-16T04:53:38.718Z,964.95
2022-10-16T04:54:28.659Z,965.01
2022-10-16T04:55:18.670Z,965.03
2022-10-16T04:56:08.639Z,965.04
2022-10-16T04:56:58.675Z,964.94
2022-10-16T04:57:48.668Z,964.97
2022-10-16T04:58:38.619Z,964.94
2022-10-16T04:59:28.611Z,964.94
2022-10-16T05:00:18.601Z,964.91
2022-10-16T05:01:08.605Z,964.92
2022-10-16T05:01:58.591Z,964.88
2022-10-16T05:02:48.583Z,964.84
2022-10-16T05:03:38.578Z,964.95
2022-10-16T05:04:28.559Z,964.95
2022-10-16T05:05:18.538Z,964.93
2022-10-16T05:06:08.529Z,964.92
2022-10-16T05:06:58.532Z,964.99
2022-10-16T05:07:48.538Z,964.99
2022-10-16T05:08:38.508Z,965.05
2022-10-16T05:09:28.497Z,965.03
2022-10-16T05:10:18.487Z,964.99
2022-10-16T05:11:08.471Z,965.05
2022-10-16T05:11:58.468Z,965.11
2022-10-16T05:12:48.449Z,965.14
2022-10-16T05:13:38.467Z,965.10
2022-10-16T05:14:28.449Z,965.12
2022-10-16T05:15:18.460Z,965.15
2022-10-16T05:16:08.418Z,965.16
2022-10-16T05:16:58.407Z,965.14
2022-10-16T05:17:48.408Z,965.14
2022-10-16T05:18:38.398Z,965.11
2022-10-16T05:19:29.161Z,965.07
2022-10-16T05:20:18.370Z,965.08
2022-10-16T05:21:08.386Z,965.10
2022-10-16T05:21:58.362Z,965.17
2022-10-16T05:22:48.568Z,965.15
2022-10-16T05:23:38.342Z,965.15
2022-10-16T05:24:28.327Z,965.10
2022-10-16T05:25:18.346Z,965.13
2022-10-16T05:26:08.306Z,965.16
2022-10-16T05:26:58.296Z,965.14
2022-10-16T05:27:48.286Z,965.19
2022-10-16T05:28:38.369Z,965.13
2022-10-16T05:29:28.268Z,965.17
2022-10-16T05:30:18.268Z,965.15
2022-10-16T05:31:08.248Z,965.18
2022-10-16T05:31:58.237Z,965.22
2022-10-16T05:32:48.228Z,965.23
2022-10-16T05:33:38.241Z,965.22
2022-10-16T05:34:28.238Z,965.25
2022-10-16T05:35:18.243Z,965.18
2022-10-16T05:36:08.194Z,965.22
2022-10-16T05:36:58.187Z,965.23
2022-10-16T05:37:48.173Z,965.23
2022-10-16T05:38:38.175Z,965.25
2022-10-16T05:39:28.155Z,965.27
2022-10-16T05:40:18.176Z,965.30
2022-10-16T05:41:08.134Z,965.25
2022-10-16T05:41:58.146Z,965.27
2022-10-16T05:42:48.115Z,965.29
2022-10-16T05:43:38.107Z,965.29
2022-10-16T05:44:28.172Z,965.30
2022-10-16T05:45:18.096Z,965.30
2022-10-16T05:46:08.114Z,965.30
2022-10-16T05:46:58.077Z,965.33
2022-10-16T05:47:48.069Z,965.37
2022-10-16T05:48:38.054Z,965.38
2022-10-16T05:49:28.035Z,965.39
2022-10-16T05:50:18.044Z,965.34
2022-10-16T05:51:08.015Z,965.36
2022-10-16T05:51:58.059Z,965.40
2022-10-16T05:52:48.004Z,965.39
2022-10-16T05:53:38.061Z,965.38
2022-10-16T05:54:27.984Z,965.37
2022-10-16T05:55:17.973Z,965.41
2022-10-16T05:56:07.973Z,965.35
2022-10-16T05:56:57.966Z,965.38
2022-10-16T05:57:47.965Z,965.33
2022-10-16T05:58:37.943Z,965.32
2022-10-16T05:59:27.953Z,965.36
2022-10-16T06:00:17.944Z,965.38
2022-10-16T06:01:07.947Z,965.37
2022-10-16T06:01:57.903Z,965.38
2022-10-16T06:02:47.883Z,965.39
2022-10-16T06:03:37.885Z,965.41
2022-10-16T06:04:27.884Z,965.39
2022-10-16T06:05:17.873Z,965.40
2022-10-16T06:06:11.521Z,965.43
2022-10-16T06:06:57.844Z,965.43
2022-10-16T06:07:47.833Z,965.44
2022-10-16T06:08:37.839Z,965.44
2022-10-16T06:09:27.819Z,965.44
2022-10-16T06:10:17.813Z,965.46
2022-10-16T06:11:07.794Z,965.49
2022-10-16T06:11:57.827Z,965.48
2022-10-16T06:12:47.783Z,965.48
2022-10-16T06:13:37.777Z,965.50
2022-10-16T06:14:27.775Z,965.55
2022-10-16T06:15:17.753Z,965.55
2022-10-16T06:16:07.742Z,965.56
2022-10-16T06:16:57.752Z,965.58
2022-10-16T06:17:47.762Z,965.58
2022-10-16T06:18:37.721Z,965.57
2022-10-16T06:19:27.702Z,965.56
2022-10-16T06:20:17.702Z,965.53
2022-10-16T06:21:07.690Z,965.55
2022-10-16T06:21:57.680Z,965.49
2022-10-16T06:22:47.682Z,965.51
2022-10-16T06:23:37.739Z,965.52
2022-10-16T06:24:27.641Z,965.53
2022-10-16T06:25:17.641Z,965.55
2022-10-16T06:26:07.643Z,965.55
2022-10-16T06:26:57.652Z,965.57
2022-10-16T06:27:47.612Z,965.61
2022-10-16T06:28:37.664Z,965.57
2022-10-16T06:29:27.592Z,965.62
2022-10-16T06:30:17.583Z,965.57
2022-10-16T06:31:08.504Z,965.64
2022-10-16T06:31:57.569Z,965.68
2022-10-16T06:32:47.620Z,965.64
2022-10-16T06:33:37.579Z,965.65
2022-10-16T06:34:27.535Z,965.69
2022-10-16T06:35:17.533Z,965.75
2022-10-16T06:36:07.512Z,965.73
2022-10-16T06:36:57.511Z,965.69
2022-10-16T06:37:47.498Z,965.69
2022-10-16T06:38:37.571Z,965.71
2022-10-16T06:39:27.480Z,965.74
2022-10-16T06:40:17.475Z,965.74
2022-10-16T06:41:07.471Z,965.75
2022-10-16T06:41:57.597Z,965.77
2022-10-16T06:42:47.446Z,965.78
2022-10-16T06:43:37.430Z,965.81
2022-10-16T06:44:27.457Z,965.86
2022-10-16T06:45:17.423Z,965.84
2022-10-16T06:46:07.413Z,965.83
2022-10-16T06:46:57.389Z,965.89
2022-10-16T06:47:47.392Z,965.88
2022-10-16T06:48:37.379Z,965.95
2022-10-16T06:49:27.378Z,965.93
2022-10-16T06:50:17.381Z,965.94
2022-10-16T06:51:07.351Z,965.97
2022-10-16T06:51:57.349Z,966.00
2022-10-16T06:52:47.333Z,966.04
2022-10-16T06:53:39.901Z,966.02
2022-10-16T06:54:28.309Z,966.01
2022-10-16T06:55:17.299Z,966.00
2022-10-16T06:56:07.318Z,966.07
2022-10-16T06:56:57.281Z,966.08
2022-10-16T06:57:47.277Z,966.16
2022-10-16T06:58:37.259Z,966.15
2022-10-16T06:59:27.250Z,966.20
2022-10-16T07:00:17.299Z,966.14
2022-10-16T07:01:07.238Z,966.15
2022-10-16T07:01:57.278Z,966.17
2022-10-16T07:02:47.220Z,966.18
2022-10-16T07:03:37.201Z,966.16
2022-10-16T07:04:27.207Z,966.11
2022-10-16T07:05:17.190Z,966.10
2022-10-16T07:06:07.178Z,966.14
2022-10-16T07:06:57.180Z,966.17
2022-10-16T07:07:47.388Z,966.21
2022-10-16T07:08:37.147Z,966.20
2022-10-16T07:09:27.194Z,966.27
2022-10-16T07:10:17.130Z,966.28
2022-10-16T07:11:07.131Z,966.32
2022-10-16T07:11:57.108Z,966.33
2022-10-16T07:12:47.107Z,966.38
2022-10-16T07:13:37.141Z,966.36
2022-10-16T07:14:27.086Z,966.34
2022-10-16T07:15:17.070Z,966.35
2022-10-16T07:16:07.069Z,966.34
2022-10-16T07:16:57.056Z,966.38
2022-10-16T07:17:47.048Z,966.41
2022-10-16T07:18:37.042Z,966.42
2022-10-16T07:19:30.490Z,966.47
2022-10-16T07:20:17.018Z,966.45
2022-10-16T07:21:07.007Z,966.46
2022-10-16T07:21:56.996Z,966.42
2022-10-16T07:22:47.034Z,966.44
2022-10-16T07:23:36.978Z,966.45
2022-10-16T07:24:26.978Z,966.50
2022-10-16T07:25:17.004Z,966.49
2022-10-16T07:26:06.957Z,966.54
2022-10-16T07:26:56.943Z,966.49
2022-10-16T07:27:46.939Z,966.46
2022-10-16T07:28:36.978Z,966.42
2022-10-16T07:29:26.916Z,966.46
2022-10-16T07:30:16.912Z,966.45
2022-10-16T07:31:06.928Z,966.47
2022-10-16T07:31:56.887Z,966.43
2022-10-16T07:32:46.876Z,966.45
2022-10-16T07:33:36.865Z,966.45
2022-10-16T07:34:26.865Z,966.45
2022-10-16T07:35:16.850Z,966.48
2022-10-16T07:36:06.845Z,966.52
2022-10-16T07:36:56.858Z,966.47
2022-10-16T07:37:46.826Z,966.46
2022-10-16T07:38:36.813Z,966.44
2022-10-16T07:39:26.805Z,966.47
2022-10-16T07:40:16.806Z,966.43
2022-10-16T07:41:06.785Z,966.45
2022-10-16T07:41:56.775Z,966.45
2022-10-16T07:42:46.795Z,966.45
2022-10-16T07:43:36.757Z,966.47
2022-10-16T07:44:26.755Z,966.46
2022-10-16T07:45:16.748Z,966.50
2022-10-16T07:46:06.829Z,966.53
2022-10-16T07:46:56.728Z,966.57
2022-10-16T07:47:46.726Z,966.65
2022-10-16T07:48:36.726Z,966.65
2022-10-16T07:49:26.694Z,966.61
2022-10-16T07:50:16.704Z,966.64
2022-10-16T07:51:06.674Z,966.65
2022-10-16T07:51:56.664Z,966.61
2022-10-16T07:52:46.664Z,966.62
2022-10-16T07:53:36.653Z,966.62
2022-10-16T07:54:26.653Z,966.61
2022-10-16T07:55:16.624Z,966.70
2022-10-16T07:56:06.654Z,966.66
2022-10-16T07:56:56.630Z,966.69
2022-10-16T07:57:46.674Z,966.71
2022-10-16T07:58:36.585Z,966.70
2022-10-16T07:59:26.592Z,966.71
2022-10-16T08:00:16.564Z,966.76
2022-10-16T08:01:06.613Z,966.70
2022-10-16T08:01:56.574Z,966.76
2022-10-16T08:02:46.554Z,966.81
2022-10-16T08:03:36.532Z,966.88
2022-10-16T08:04:26.544Z,966.87
2022-10-16T08:05:16.513Z,966.90
2022-10-16T08:06:06.513Z,966.91
2022-10-16T08:06:56.704Z,966.92
2022-10-16T08:07:46.493Z,966.91
2022-10-16T08:08:36.489Z,966.89
2022-10-16T08:09:26.487Z,966.83
2022-10-16T08:10:16.463Z,966.81
2022-10-16T08:11:06.454Z,966.81
2022-10-16T08:12:01.289Z,966.88
2022-10-16T08:12:47.463Z,966.88
2022-10-16T08:13:36.419Z,966.86
2022-10-16T08:14:26.414Z,966.77
2022-10-16T08:15:16.401Z,966.78
2022-10-16T08:16:06.392Z,966.76
2022-10-16T08:16:56.383Z,966.77
2022-10-16T08:17:46.373Z,966.81
2022-10-16T08:18:36.396Z,966.84
2022-10-16T08:19:26.355Z,966.82
2022-10-16T08:20:16.348Z,966.87
2022-10-16T08:21:06.332Z,966.90
2022-10-16T08:21:56.321Z,966.91
2022-10-16T08:22:46.322Z,966.88
2022-10-16T08:23:36.315Z,966.92
2022-10-16T08:24:26.794Z,966.94
2022-10-16T08:25:16.305Z,966.91
2022-10-16T08:26:06.301Z,966.91
2022-10-16T08:26:56.304Z,966.92
2022-10-16T08:27:46.304Z,966.94
2022-10-16T08:28:36.312Z,966.97
2022-10-16T08:29:26.245Z,967.00
2022-10-16T08:30:16.262Z,967.05
2022-10-16T08:31:06.245Z,967.07
2022-10-16T08:31:56.211Z,967.12
2022-10-16T08:32:46.203Z,967.11
2022-10-16T08:33:36.192Z,967.06
2022-10-16T08:34:26.181Z,967.05
2022-10-16T08:35:16.246Z,967.07
2022-10-16T08:36:06.192Z,967.12
2022-10-16T08:36:56.153Z,967.11
2022-10-16T08:37:46.145Z,967.09
2022-10-16T08:38:36.131Z,967.10
2022-10-16T08:39:26.133Z,967.08
2022-10-16T08:40:16.215Z,967.05
2022-10-16T08:41:06.112Z,967.12
2022-10-16T08:41:56.310Z,967.14
2022-10-16T08:42:46.091Z,967.10
2022-10-16T08:43:36.071Z,967.13
2022-10-16T08:44:26.072Z,967.14
2022-10-16T08:45:16.061Z,967.14
2022-10-16T08:46:06.052Z,967.13
2022-10-16T08:46:56.037Z,967.08
2022-10-16T08:47:46.251Z,967.06
2022-10-16T08:48:36.019Z,967.09
2022-10-16T08:49:26.020Z,967.07
2022-10-16T08:50:15.999Z,967.09
2022-10-16T08:51:06.005Z,967.14
2022-10-16T08:51:55.981Z,967.10
2022-10-16T08:52:45.991Z,967.12
2022-10-16T08:53:36.009Z,967.09
2022-10-16T08:54:25.960Z,967.06
2022-10-16T08:55:15.948Z,967.08
2022-10-16T08:56:05.984Z,967.03
2022-10-16T08:56:55.919Z,967.06
2022-10-16T08:57:45.921Z,967.04
2022-10-16T08:58:35.957Z,967.01
2022-10-16T08:59:26.125Z,967.04
2022-10-16T09:00:15.891Z,967.06
2022-10-16T09:01:06.041Z,967.01
2022-10-16T09:01:55.869Z,967.03
2022-10-16T09:02:45.898Z,967.01
2022-10-16T09:03:35.849Z,967.07
2022-10-16T09:04:25.841Z,967.06
2022-10-16T09:05:15.861Z,967.07
2022-10-16T09:06:05.822Z,967.09
2022-10-16T09:06:55.823Z,967.09
2022-10-16T09:07:45.811Z,967.10
2022-10-16T09:08:35.805Z,967.06
2022-10-16T09:09:25.792Z,967.05
2022-10-16T09:10:15.775Z,967.09
2022-10-16T09:11:07.308Z,967.08
2022-10-16T09:11:55.750Z,967.08
2022-10-16T09:12:45.741Z,967.06
2022-10-16T09:13:35.760Z,967.12
2022-10-16T09:14:25.728Z,967.06
2022-10-16T09:15:15.712Z,967.08
2022-10-16T09:16:05.706Z,967.06
2022-10-16T09:16:55.770Z,967.09
2022-10-16T09:17:45.690Z,967.13
2022-10-16T09:18:35.680Z,967.14
2022-10-16T09:19:25.670Z,967.15
2022-10-16T09:20:15.655Z,967.12
2022-10-16T09:21:05.651Z,967.11
2022-10-16T09:21:55.639Z,967.13
2022-10-16T09:22:45.676Z,967.12
2022-10-16T09:23:35.618Z,967.15
2022-10-16T09:24:27.126Z,967.15
2022-10-16T09:25:15.599Z,967.11
2022-10-16T09:26:05.613Z,967.15
2022-10-16T09:26:55.580Z,967.14
2022-10-16T09:27:45.577Z,967.10
2022-10-16T09:28:35.635Z,967.09
2022-10-16T09:29:25.559Z,967.07
2022-10-16T09:30:15.550Z,967.07
2022-10-16T09:31:05.543Z,967.07
2022-10-16T09:31:55.519Z,967.03
2022-10-16T09:32:45.511Z,967.04
2022-10-16T09:33:35.499Z,967.01
2022-10-16T09:34:25.761Z,967.08
2022-10-16T09:35:15.483Z,967.11
2022-10-16T09:36:05.477Z,967.10
2022-10-16T09:36:55.473Z,967.12
2022-10-16T09:37:45.459Z,967.13
2022-10-16T09:38:35.452Z,967.17
2022-10-16T09:39:25.438Z,967.17
2022-10-16T09:40:15.459Z,967.20
2022-10-16T09:41:05.439Z,967.20
2022-10-16T09:41:55.420Z,967.25
2022-10-16T09:42:45.410Z,967.26
2022-10-16T09:43:35.399Z,967.22
2022-10-16T09:44:25.389Z,967.24
2022-10-16T09:45:15.377Z,967.21
2022-10-16T09:46:06.379Z,967.21
2022-10-16T09:46:55.350Z,967.24
2022-10-16T09:47:45.352Z,967.22
2022-10-16T09:48:35.328Z,967.24
2022-10-16T09:49:25.328Z,967.23
2022-10-16T09:50:15.314Z,967.21
2022-10-16T09:51:05.319Z,967.24
2022-10-16T09:51:55.329Z,967.27
2022-10-16T09:52:45.289Z,967.28
2022-10-16T09:53:35.291Z,967.28
2022-10-16T09:54:25.271Z,967.29
2022-10-16T09:55:15.258Z,967.26
2022-10-16T09:56:05.877Z,967.25
2022-10-16T09:56:55.245Z,967.24
2022-10-16T09:57:45.268Z,967.27
2022-10-16T09:58:35.243Z,967.20
2022-10-16T09:59:25.232Z,967.21
2022-10-16T10:00:15.215Z,967.25
2022-10-16T10:01:05.208Z,967.24
2022-10-16T10:01:55.187Z,967.16
2022-10-16T10:02:45.308Z,967.21
2022-10-16T10:03:35.217Z,967.23
2022-10-16T10:04:25.164Z,967.24
2022-10-16T10:05:15.148Z,967.19
2022-10-16T10:06:05.140Z,967.20
2022-10-16T10:06:55.131Z,967.25
2022-10-16T10:07:45.138Z,967.21
2022-10-16T10:08:35.107Z,967.25
2022-10-16T10:09:25.261Z,967.25
2022-10-16T10:10:15.090Z,967.31
2022-10-16T10:11:05.081Z,967.26
2022-10-16T10:11:55.169Z,967.29
2022-10-16T10:12:45.067Z,967.28
2022-10-16T10:13:35.060Z,967.30
2022-10-16T10:14:25.051Z,967.26
2022-10-16T10:15:15.258Z,967.26
2022-10-16T10:16:05.029Z,967.27
2022-10-16T10:16:55.035Z,967.27
2022-10-16T10:17:45.007Z,967.27
2022-10-16T10:18:35.000Z,967.31
2022-10-16T10:19:28.043Z,967.27
2022-10-16T10:20:16.181Z,967.27
2022-10-16T10:21:54.964Z,967.27
2022-10-16T10:22:44.974Z,967.26
2022-10-16T10:23:34.942Z,967.28
2022-10-16T10:24:24.937Z,967.27
2022-10-16T10:25:14.927Z,967.31